createdAt,value
2023-01-08T00:01:08.082Z,5.76
2023-01-08T00:03:37.087Z,5.76
2023-01-08T00:06:07.733Z,5.76
2023-01-08T00:08:35.949Z,5.75
2023-01-08T00:11:04.027Z,5.75
2023-01-08T00:13:32.044Z,5.78
2023-01-08T00:16:04.650Z,5.78
2023-01-08T00:18:33.248Z,5.77
2023-01-08T00:21:01.405Z,5.76
2023-01-08T00:23:30.386Z,5.74
2023-01-08T00:26:00.349Z,5.74
2023-01-08T00:28:28.516Z,5.74
2023-01-08T00:30:56.757Z,5.75
2023-01-08T00:33:25.087Z,5.72
2023-01-08T00:35:53.418Z,5.69
2023-01-08T00:38:24.657Z,5.64
2023-01-08T00:40:52.642Z,5.60
2023-01-08T00:43:20.686Z,5.58
2023-01-08T00:45:51.164Z,5.54
2023-01-08T00:48:19.314Z,5.48
2023-01-08T00:50:47.432Z,5.44
2023-01-08T00:53:15.935Z,5.39
2023-01-08T00:55:44.066Z,5.34
2023-01-08T00:58:12.226Z,5.28
2023-01-08T01:00:40.290Z,5.22
2023-01-08T01:03:08.584Z,5.17
2023-01-08T01:05:36.628Z,5.14
2023-01-08T01:08:05.361Z,5.09
2023-01-08T01:10:33.419Z,5.04
2023-01-08T01:13:01.516Z,4.98
2023-01-08T01:15:29.559Z,4.95
2023-01-08T01:17:57.650Z,4.90
2023-01-08T01:20:25.812Z,4.88
2023-01-08T01:22:53.834Z,4.86
2023-01-08T01:25:21.873Z,4.85
2023-01-08T01:27:50.092Z,4.84
2023-01-08T01:30:18.355Z,4.85
2023-01-08T01:32:46.363Z,4.83
2023-01-08T01:35:14.632Z,4.79
2023-01-08T01:37:42.655Z,4.76
2023-01-08T01:40:11.872Z,4.70
2023-01-08T01:42:39.939Z,4.62
2023-01-08T01:45:16.900Z,4.58
2023-01-08T01:47:47.742Z,4.53
2023-01-08T01:50:19.594Z,4.50
2023-01-08T01:52:55.055Z,4.43
2023-01-08T01:55:24.533Z,4.36
2023-01-08T01:58:01.099Z,4.32
2023-01-08T02:00:30.077Z,4.30
2023-01-08T02:02:58.238Z,4.26
2023-01-08T02:05:33.710Z,4.24
2023-01-08T02:08:07.575Z,4.22
2023-01-08T02:10:42.371Z,4.22
2023-01-08T02:13:19.868Z,4.25
2023-01-08T02:15:56.255Z,4.28
2023-01-08T02:18:32.943Z,4.29
2023-01-08T02:21:08.520Z,4.28
2023-01-08T02:23:46.047Z,4.30
2023-01-08T02:26:17.077Z,4.31
2023-01-08T02:28:51.001Z,4.33
2023-01-08T02:31:21.361Z,4.34
2023-01-08T02:33:49.662Z,4.38
2023-01-08T02:36:34.491Z,4.41
2023-01-08T02:39:32.617Z,4.40
2023-01-08T02:42:16.259Z,4.42
2023-01-08T02:44:55.005Z,4.42
2023-01-08T02:47:27.541Z,4.44
2023-01-08T02:50:05.044Z,4.48
2023-01-08T02:52:38.225Z,4.51
2023-01-08T02:55:07.521Z,4.53
2023-01-08T02:57:36.319Z,4.56
2023-01-08T03:00:06.640Z,4.56
2023-01-08T03:02:39.297Z,4.56
2023-01-08T03:05:14.369Z,4.54
2023-01-08T03:07:43.246Z,4.49
2023-01-08T03:10:12.426Z,4.43
2023-01-08T03:12:53.312Z,4.40
2023-01-08T03:15:28.773Z,4.36
2023-01-08T03:18:02.617Z,4.32
2023-01-08T03:20:33.171Z,4.30
2023-01-08T03:23:06.162Z,4.27
2023-01-08T03:25:37.320Z,4.21
2023-01-08T03:28:11.979Z,4.15
2023-01-08T03:30:42.343Z,4.10
2023-01-08T03:33:13.285Z,4.07
2023-01-08T03:35:44.642Z,4.05
2023-01-08T03:38:17.212Z,4.05
2023-01-08T03:40:48.109Z,4.03
2023-01-08T03:43:16.174Z,3.98
2023-01-08T03:45:49.984Z,3.92
2023-01-08T03:48:20.060Z,3.88
2023-01-08T03:50:48.825Z,3.85
2023-01-08T03:53:17.035Z,3.83
2023-01-08T03:55:45.140Z,3.82
2023-01-08T03:58:13.453Z,3.82
2023-01-08T04:00:41.546Z,3.81
2023-01-08T04:03:09.656Z,3.78
2023-01-08T04:05:38.039Z,3.78
2023-01-08T04:08:06.367Z,3.77
2023-01-08T04:10:34.436Z,3.73
2023-01-08T04:13:02.527Z,3.70
2023-01-08T04:15:30.568Z,3.67
2023-01-08T04:17:58.595Z,3.64
2023-01-08T04:20:26.638Z,3.63
2023-01-08T04:22:54.749Z,3.63
2023-01-08T04:25:22.825Z,3.61
2023-01-08T04:27:51.174Z,3.59
2023-01-08T04:30:19.159Z,3.57
2023-01-08T04:32:47.251Z,3.54
2023-01-08T04:35:15.582Z,3.55
2023-01-08T04:37:43.593Z,3.55
2023-01-08T04:40:12.513Z,3.55
2023-01-08T04:42:40.563Z,3.52
2023-01-08T04:45:10.287Z,3.49
2023-01-08T04:47:38.327Z,3.46
2023-01-08T04:50:07.985Z,3.41
2023-01-08T04:52:36.150Z,3.37
2023-01-08T04:55:05.517Z,3.35
2023-01-08T04:57:33.680Z,3.32
2023-01-08T05:00:01.707Z,3.30
2023-01-08T05:02:30.205Z,3.26
2023-01-08T05:04:58.465Z,3.23
2023-01-08T05:07:26.540Z,3.23
2023-01-08T05:09:54.537Z,3.21
2023-01-08T05:12:22.615Z,3.17
2023-01-08T05:14:50.798Z,3.17
2023-01-08T05:17:18.785Z,3.18
2023-01-08T05:19:46.839Z,3.20
2023-01-08T05:22:14.812Z,3.22
2023-01-08T05:24:42.797Z,3.23
2023-01-08T05:27:10.794Z,3.23
2023-01-08T05:29:38.890Z,3.22
2023-01-08T05:32:15.614Z,3.20
2023-01-08T05:34:43.948Z,3.19
2023-01-08T05:37:12.125Z,3.17
2023-01-08T05:39:40.152Z,3.15
2023-01-08T05:42:08.101Z,3.13
2023-01-08T05:44:36.057Z,3.12
2023-01-08T05:47:04.140Z,3.10
2023-01-08T05:49:32.236Z,3.10
2023-01-08T05:52:00.278Z,3.07
2023-01-08T05:54:28.394Z,3.08
2023-01-08T05:56:56.645Z,3.08
2023-01-08T05:59:24.664Z,3.06
2023-01-08T06:01:52.703Z,3.06
2023-01-08T06:04:20.792Z,3.06
2023-01-08T06:06:49.091Z,3.07
2023-01-08T06:09:17.426Z,3.07
2023-01-08T06:11:46.639Z,3.07
2023-01-08T06:14:16.763Z,3.08
2023-01-08T06:16:44.827Z,3.08
2023-01-08T06:19:13.159Z,3.06
2023-01-08T06:21:41.285Z,3.03
2023-01-08T06:24:09.538Z,3.00
2023-01-08T06:26:37.674Z,2.96
2023-01-08T06:29:06.072Z,2.93
2023-01-08T06:31:34.173Z,2.89
2023-01-08T06:34:02.401Z,2.88
2023-01-08T06:36:30.467Z,2.86
2023-01-08T06:38:58.427Z,2.85
2023-01-08T06:41:26.421Z,2.83
2023-01-08T06:43:54.443Z,2.85
2023-01-08T06:46:23.164Z,2.86
2023-01-08T06:48:51.163Z,2.86
2023-01-08T06:51:19.149Z,2.87
2023-01-08T06:53:48.958Z,2.88
2023-01-08T06:56:17.148Z,2.88
2023-01-08T06:58:45.154Z,2.88
2023-01-08T07:01:15.618Z,2.88
2023-01-08T07:03:44.434Z,2.88
2023-01-08T07:06:16.201Z,2.89
2023-01-08T07:08:45.101Z,2.90
2023-01-08T07:11:13.874Z,2.93
2023-01-08T07:13:42.045Z,2.94
2023-01-08T07:16:12.851Z,2.94
2023-01-08T07:18:41.520Z,2.94
2023-01-08T07:21:09.582Z,2.94
2023-01-08T07:23:37.751Z,2.95
2023-01-08T07:26:07.745Z,2.96
2023-01-08T07:28:35.910Z,2.97
2023-01-08T07:31:05.510Z,2.96
2023-01-08T07:33:33.872Z,2.97
2023-01-08T07:36:02.271Z,2.98
2023-01-08T07:38:30.176Z,2.98
2023-01-08T07:40:58.736Z,2.97
2023-01-08T07:43:29.274Z,2.97
2023-01-08T07:45:57.343Z,2.98
2023-01-08T07:48:25.234Z,2.96
2023-01-08T07:50:54.007Z,2.95
2023-01-08T07:53:21.930Z,2.95
2023-01-08T07:55:50.028Z,2.94
2023-01-08T07:58:18.048Z,2.93
2023-01-08T08:00:45.943Z,2.93
2023-01-08T08:03:13.931Z,2.92
2023-01-08T08:05:41.905Z,2.93
2023-01-08T08:08:11.729Z,2.92
2023-01-08T08:10:41.483Z,2.91
2023-01-08T08:13:10.095Z,2.91
2023-01-08T08:15:39.435Z,2.93
2023-01-08T08:18:08.018Z,2.95
2023-01-08T08:20:36.578Z,2.94
2023-01-08T08:23:06.677Z,2.95
2023-01-08T08:25:35.377Z,2.97
2023-01-08T08:28:04.263Z,2.98
2023-01-08T08:30:34.310Z,2.97
2023-01-08T08:33:05.057Z,2.96
2023-01-08T08:35:34.409Z,2.97
2023-01-08T08:38:02.591Z,2.99
2023-01-08T08:40:30.923Z,2.99
2023-01-08T08:43:00.498Z,2.97
2023-01-08T08:45:29.300Z,2.98
2023-01-08T08:47:57.318Z,3.00
2023-01-08T08:50:25.539Z,3.03
2023-01-08T08:52:58.450Z,3.05
2023-01-08T08:55:26.436Z,3.09
2023-01-08T08:57:54.415Z,3.12
2023-01-08T09:00:23.137Z,3.14
2023-01-08T09:02:51.218Z,3.16
2023-01-08T09:05:19.587Z,3.18
2023-01-08T09:07:47.979Z,3.18
2023-01-08T09:10:16.153Z,3.20
2023-01-08T09:12:44.043Z,3.22
2023-01-08T09:15:12.957Z,3.22
2023-01-08T09:17:40.867Z,3.24
2023-01-08T09:20:10.643Z,3.27
2023-01-08T09:22:38.601Z,3.31
2023-01-08T09:25:07.545Z,3.34
2023-01-08T09:27:35.509Z,3.36
2023-01-08T09:30:04.415Z,3.38
2023-01-08T09:32:32.470Z,3.40
2023-01-08T09:35:00.417Z,3.43
2023-01-08T09:37:28.441Z,3.47
2023-01-08T09:40:02.122Z,3.54
2023-01-08T09:42:31.537Z,3.61
2023-01-08T09:45:02.427Z,3.68
2023-01-08T09:47:35.805Z,3.73
2023-01-08T09:50:11.162Z,3.79
2023-01-08T09:52:39.793Z,3.83
2023-01-08T09:55:13.958Z,3.87
2023-01-08T09:57:43.508Z,3.91
2023-01-08T10:00:17.275Z,3.94
2023-01-08T10:02:45.949Z,3.99
2023-01-08T10:05:15.980Z,4.04
2023-01-08T10:07:45.092Z,4.09
2023-01-08T10:10:20.498Z,4.14
2023-01-08T10:12:49.989Z,4.17
2023-01-08T10:15:20.231Z,4.20
2023-01-08T10:17:52.962Z,4.25
2023-01-08T10:20:23.523Z,4.30
2023-01-08T10:22:53.617Z,4.32
2023-01-08T10:25:23.258Z,4.37
2023-01-08T10:27:53.146Z,4.38
2023-01-08T10:30:23.235Z,4.40
2023-01-08T10:32:54.972Z,4.44
2023-01-08T10:35:29.609Z,4.45
2023-01-08T10:37:58.513Z,4.44
2023-01-08T10:40:33.541Z,4.44
2023-01-08T10:43:08.734Z,4.43
2023-01-08T10:45:35.875Z,4.39
2023-01-08T10:48:07.040Z,4.35
2023-01-08T10:50:35.587Z,4.30
2023-01-08T10:53:05.664Z,4.22
2023-01-08T10:55:36.775Z,4.18
2023-01-08T10:58:13.832Z,4.18
2023-01-08T11:00:41.839Z,4.22
2023-01-08T11:03:23.575Z,4.24
2023-01-08T11:05:51.956Z,4.24
2023-01-08T11:08:23.199Z,4.25
2023-01-08T11:10:56.823Z,4.26
2023-01-08T11:13:25.770Z,4.27
2023-01-08T11:16:03.848Z,4.25
2023-01-08T11:18:35.528Z,4.26
2023-01-08T11:21:10.190Z,4.27
2023-01-08T11:23:38.169Z,4.27
2023-01-08T11:26:11.191Z,4.25
2023-01-08T11:28:49.406Z,4.22
2023-01-08T11:31:28.709Z,4.18
2023-01-08T11:34:12.022Z,4.15
2023-01-08T11:36:48.863Z,4.11
2023-01-08T11:39:17.389Z,4.08
2023-01-08T11:42:09.688Z,4.08
2023-01-08T11:44:46.713Z,4.06
2023-01-08T11:47:25.952Z,4.02
2023-01-08T11:50:14.830Z,4.03
2023-01-08T11:52:52.339Z,4.06
2023-01-08T11:55:30.173Z,4.06
2023-01-08T11:58:15.240Z,4.08
2023-01-08T12:00:56.018Z,4.11
2023-01-08T12:03:31.742Z,4.13
2023-01-08T12:06:11.364Z,4.11
2023-01-08T12:08:48.418Z,4.08
2023-01-08T12:11:23.604Z,4.05
2023-01-08T12:14:06.300Z,4.00
2023-01-08T12:16:59.627Z,3.94
2023-01-08T12:19:41.709Z,3.93
2023-01-08T12:22:27.572Z,3.94
2023-01-08T12:25:24.978Z,3.94
2023-01-08T12:28:03.476Z,3.91
2023-01-08T12:30:47.400Z,3.91
2023-01-08T12:33:27.726Z,3.91
2023-01-08T12:35:59.863Z,3.90
2023-01-08T12:38:31.968Z,3.87
2023-01-08T12:41:05.443Z,3.85
2023-01-08T12:43:42.855Z,3.85
2023-01-08T12:46:16.350Z,3.88
2023-01-08T12:48:49.286Z,3.91
2023-01-08T12:51:25.795Z,3.93
2023-01-08T12:54:02.366Z,3.92
2023-01-08T12:56:40.974Z,3.89
2023-01-08T12:59:20.042Z,3.85
2023-01-08T13:01:54.108Z,3.82
2023-01-08T13:04:22.377Z,3.77
2023-01-08T13:06:52.498Z,3.72
2023-01-08T13:09:25.368Z,3.69
2023-01-08T13:11:56.278Z,3.66
2023-01-08T13:14:26.737Z,3.64
2023-01-08T13:17:04.098Z,3.66
2023-01-08T13:19:40.801Z,3.64
2023-01-08T13:22:24.938Z,3.65
2023-01-08T13:25:07.633Z,3.64
2023-01-08T13:27:35.964Z,3.65
2023-01-08T13:30:18.424Z,3.64
2023-01-08T13:32:47.902Z,3.62
2023-01-08T13:35:28.213Z,3.58
2023-01-08T13:38:14.498Z,3.52
2023-01-08T13:40:56.663Z,3.48
2023-01-08T13:43:29.596Z,3.46
2023-01-08T13:46:16.198Z,3.46
2023-01-08T13:48:54.468Z,3.46
2023-01-08T13:51:42.161Z,3.45
2023-01-08T13:54:20.778Z,3.43
2023-01-08T13:56:54.290Z,3.42
2023-01-08T13:59:33.514Z,3.43
2023-01-08T14:02:01.647Z,3.40
2023-01-08T14:04:30.141Z,3.36
2023-01-08T14:07:13.626Z,3.33
2023-01-08T14:09:41.762Z,3.32
2023-01-08T14:12:14.016Z,3.31
2023-01-08T14:14:48.665Z,3.28
2023-01-08T14:17:18.514Z,3.27
2023-01-08T14:19:47.036Z,3.28
2023-01-08T14:22:19.871Z,3.27
2023-01-08T14:24:56.488Z,3.26
2023-01-08T14:27:27.464Z,3.26
2023-01-08T14:29:56.565Z,3.29
2023-01-08T14:32:29.253Z,3.31
2023-01-08T14:34:59.542Z,3.31
2023-01-08T14:37:27.780Z,3.27
2023-01-08T14:39:56.217Z,3.23
2023-01-08T14:42:42.116Z,3.18
2023-01-08T14:45:18.180Z,3.13
2023-01-08T14:47:49.262Z,3.09
2023-01-08T14:50:24.241Z,3.09
2023-01-08T14:52:55.192Z,3.10
2023-01-08T14:55:24.289Z,3.11
2023-01-08T14:57:55.847Z,3.13
2023-01-08T15:00:27.015Z,3.13
2023-01-08T15:03:36.836Z,3.16
2023-01-08T15:06:11.487Z,3.13
2023-01-08T15:08:44.020Z,3.09
2023-01-08T15:11:24.526Z,3.07
2023-01-08T15:13:57.283Z,3.05
2023-01-08T15:16:32.857Z,3.04
2023-01-08T15:19:13.785Z,2.99
2023-01-08T15:21:50.999Z,2.98
2023-01-08T15:24:26.241Z,2.98
2023-01-08T15:26:57.966Z,3.00
2023-01-08T15:29:33.242Z,3.02
2023-01-08T15:32:20.110Z,3.05
2023-01-08T15:34:50.989Z,3.05
2023-01-08T15:37:21.687Z,3.04
2023-01-08T15:39:52.455Z,3.05
2023-01-08T15:42:43.138Z,3.05
2023-01-08T15:45:16.242Z,3.07
2023-01-08T15:47:47.371Z,3.06
2023-01-08T15:50:20.493Z,3.04
2023-01-08T15:52:51.348Z,2.99
2023-01-08T15:55:23.591Z,2.97
2023-01-08T15:57:55.971Z,2.97
2023-01-08T16:00:27.310Z,2.94
2023-01-08T16:03:00.096Z,2.95
2023-01-08T16:05:33.014Z,2.95
2023-01-08T16:08:04.315Z,2.93
2023-01-08T16:10:35.406Z,2.94
2023-01-08T16:13:07.035Z,2.96
2023-01-08T16:15:40.190Z,2.96
2023-01-08T16:18:10.993Z,2.95
2023-01-08T16:20:41.844Z,2.97
2023-01-08T16:23:12.688Z,2.98
2023-01-08T16:25:43.416Z,2.98
2023-01-08T16:28:14.239Z,2.98
2023-01-08T16:30:45.270Z,2.98
2023-01-08T16:33:16.105Z,2.97
2023-01-08T16:35:58.851Z,2.96
2023-01-08T16:38:30.709Z,2.97
2023-01-08T16:41:02.646Z,2.98
2023-01-08T16:43:39.775Z,2.98
2023-01-08T16:46:14.894Z,2.96
2023-01-08T16:48:46.904Z,2.96
2023-01-08T16:51:18.070Z,2.95
2023-01-08T16:53:48.764Z,2.98
2023-01-08T16:56:19.487Z,2.99
2023-01-08T16:58:52.794Z,3.00
2023-01-08T17:01:23.902Z,3.00
2023-01-08T17:03:54.762Z,2.99
2023-01-08T17:06:26.288Z,2.99
2023-01-08T17:08:59.461Z,3.02
2023-01-08T17:11:31.940Z,3.05
2023-01-08T17:14:02.643Z,3.05
2023-01-08T17:16:33.386Z,3.04
2023-01-08T17:19:04.134Z,3.02
2023-01-08T17:21:36.160Z,2.99
2023-01-08T17:24:08.039Z,2.96
2023-01-08T17:26:38.789Z,2.99
2023-01-08T17:29:09.555Z,3.02
2023-01-08T17:31:42.887Z,3.06
2023-01-08T17:34:15.490Z,3.06
2023-01-08T17:36:46.320Z,3.06
2023-01-08T17:39:17.164Z,3.08
2023-01-08T17:42:05.195Z,3.11
2023-01-08T17:44:35.875Z,3.13
2023-01-08T17:47:06.727Z,3.12
2023-01-08T17:49:38.045Z,3.14
2023-01-08T17:52:29.560Z,3.17
2023-01-08T17:55:21.103Z,3.18
2023-01-08T17:58:12.655Z,3.19
2023-01-08T18:01:04.481Z,3.20
2023-01-08T18:03:56.235Z,3.19
2023-01-08T18:06:47.775Z,3.19
2023-01-08T18:09:39.350Z,3.14
2023-01-08T18:12:32.552Z,3.10
2023-01-08T18:15:23.745Z,3.05
2023-01-08T18:18:15.187Z,3.02
2023-01-08T18:21:07.313Z,3.01
2023-01-08T18:23:58.917Z,3.02
2023-01-08T18:26:51.321Z,3.03
2023-01-08T18:29:42.900Z,3.05
2023-01-08T18:32:35.251Z,3.05
2023-01-08T18:35:26.752Z,3.03
2023-01-08T18:38:18.567Z,3.03
2023-01-08T18:41:11.283Z,3.05
2023-01-08T18:44:03.825Z,3.07
2023-01-08T18:46:55.436Z,3.10
2023-01-08T18:49:46.965Z,3.14
2023-01-08T18:52:39.747Z,3.14
2023-01-08T18:55:11.248Z,3.13
2023-01-08T18:57:41.927Z,3.14
2023-01-08T19:00:14.689Z,3.15
2023-01-08T19:02:45.724Z,3.16
2023-01-08T19:05:40.613Z,3.17
2023-01-08T19:08:32.221Z,3.18
2023-01-08T19:11:24.048Z,3.22
2023-01-08T19:13:58.148Z,3.25
2023-01-08T19:16:29.088Z,3.27
2023-01-08T19:19:00.356Z,3.29
2023-01-08T19:21:33.025Z,3.29
2023-01-08T19:24:04.211Z,3.30
2023-01-08T19:26:35.031Z,3.29
2023-01-08T19:29:06.073Z,3.29
2023-01-08T19:31:37.234Z,3.31
2023-01-08T19:34:08.367Z,3.32
2023-01-08T19:36:39.413Z,3.32
2023-01-08T19:39:11.338Z,3.32
2023-01-08T19:42:00.039Z,3.32
2023-01-08T19:44:30.977Z,3.36
2023-01-08T19:47:01.800Z,3.37
2023-01-08T19:49:32.955Z,3.40
2023-01-08T19:52:03.779Z,3.45
2023-01-08T19:54:34.658Z,3.49
2023-01-08T19:57:05.488Z,3.52
2023-01-08T19:59:36.660Z,3.54
2023-01-08T20:02:09.306Z,3.57
2023-01-08T20:04:43.283Z,3.59
2023-01-08T20:07:15.101Z,3.60
2023-01-08T20:09:46.022Z,3.58
2023-01-08T20:12:17.019Z,3.56
2023-01-08T20:14:48.092Z,3.56
2023-01-08T20:17:19.614Z,3.56
2023-01-08T20:19:50.471Z,3.56
2023-01-08T20:22:21.613Z,3.55
2023-01-08T20:24:53.089Z,3.57
2023-01-08T20:27:24.089Z,3.58
2023-01-08T20:29:54.849Z,3.58
2023-01-08T20:32:25.796Z,3.57
2023-01-08T20:34:56.896Z,3.53
2023-01-08T20:37:29.413Z,3.52
2023-01-08T20:40:00.464Z,3.52
2023-01-08T20:42:34.312Z,3.50
2023-01-08T20:45:06.006Z,3.49
2023-01-08T20:47:38.182Z,3.47
2023-01-08T20:50:19.438Z,3.44
2023-01-08T20:52:51.675Z,3.43
2023-01-08T20:55:23.020Z,3.44
2023-01-08T20:57:54.046Z,3.44
2023-01-08T21:00:25.908Z,3.44
2023-01-08T21:02:56.833Z,3.45
2023-01-08T21:05:27.938Z,3.46
2023-01-08T21:07:58.686Z,3.45
2023-01-08T21:10:29.735Z,3.43
2023-01-08T21:13:00.914Z,3.42
2023-01-08T21:15:31.781Z,3.40
2023-01-08T21:18:03.289Z,3.39
2023-01-08T21:20:33.998Z,3.38
2023-01-08T21:23:04.940Z,3.38
2023-01-08T21:25:36.034Z,3.39
2023-01-08T21:28:08.375Z,3.38
2023-01-08T21:30:39.396Z,3.36
2023-01-08T21:33:10.112Z,3.31
2023-01-08T21:35:40.969Z,3.30
2023-01-08T21:38:11.837Z,3.28
2023-01-08T21:40:42.815Z,3.27
2023-01-08T21:43:32.860Z,3.26
2023-01-08T21:46:04.843Z,3.24
2023-01-08T21:48:35.895Z,3.22
2023-01-08T21:51:27.003Z,3.22
2023-01-08T21:53:58.223Z,3.21
2023-01-08T21:56:29.387Z,3.23
2023-01-08T21:59:00.682Z,3.24
2023-01-08T22:01:31.948Z,3.25
2023-01-08T22:04:03.023Z,3.27
2023-01-08T22:06:34.844Z,3.27
2023-01-08T22:09:06.121Z,3.27
2023-01-08T22:11:36.853Z,3.26
2023-01-08T22:14:07.946Z,3.25
2023-01-08T22:16:39.143Z,3.25
2023-01-08T22:19:11.012Z,3.24
2023-01-08T22:21:41.784Z,3.23
2023-01-08T22:24:12.703Z,3.24
2023-01-08T22:26:44.773Z,3.24
2023-01-08T22:29:15.657Z,3.25
2023-01-08T22:31:46.503Z,3.26
2023-01-08T22:34:18.938Z,3.27
2023-01-08T22:36:53.126Z,3.26
2023-01-08T22:39:23.914Z,3.27
2023-01-08T22:41:54.670Z,3.29
2023-01-08T22:44:26.090Z,3.30
2023-01-08T22:46:59.219Z,3.32
2023-01-08T22:49:30.419Z,3.33
2023-01-08T22:52:01.636Z,3.33
2023-01-08T22:54:32.785Z,3.33
2023-01-08T22:57:03.775Z,3.35
2023-01-08T22:59:36.587Z,3.35
2023-01-08T23:02:07.264Z,3.35
2023-01-08T23:04:38.275Z,3.35
2023-01-08T23:07:09.341Z,3.36
2023-01-08T23:09:40.354Z,3.36
2023-01-08T23:12:11.409Z,3.35
2023-01-08T23:14:43.429Z,3.35
2023-01-08T23:17:15.138Z,3.36
2023-01-08T23:19:46.250Z,3.33
2023-01-08T23:22:17.043Z,3.31
2023-01-08T23:24:47.828Z,3.31
2023-01-08T23:27:18.650Z,3.30
2023-01-08T23:29:49.506Z,3.30
2023-01-08T23:32:20.566Z,3.27
2023-01-08T23:34:51.649Z,3.26
2023-01-08T23:37:23.489Z,3.27
2023-01-08T23:39:54.541Z,3.30
2023-01-08T23:42:27.046Z,3.34
2023-01-08T23:44:58.241Z,3.36
2023-01-08T23:47:28.996Z,3.37
2023-01-08T23:49:59.810Z,3.37
2023-01-08T23:52:31.618Z,3.37
2023-01-08T23:55:02.320Z,3.37
2023-01-08T23:57:33.205Z,3.35
